createdAt,value
2024-03-27T00:01:50.744Z,97112.77
2024-03-27T00:06:55.697Z,97112.89
2024-03-27T00:11:57.678Z,97112.55
2024-03-27T00:16:59.803Z,97109.49
2024-03-27T00:22:01.806Z,97108.48
2024-03-27T00:27:04.692Z,97102.02
2024-03-27T00:32:06.731Z,97095.07
2024-03-27T00:37:08.723Z,97088.59
2024-03-27T00:42:10.594Z,97079.77
2024-03-27T00:47:12.303Z,97070.28
2024-03-27T00:52:14.058Z,97058.42
2024-03-27T00:57:15.851Z,97051.20
2024-03-27T01:02:17.911Z,97044.77
2024-03-27T01:07:19.687Z,97047.69
2024-03-27T01:12:21.683Z,97040.48
2024-03-27T01:17:23.499Z,97038.02
2024-03-27T01:22:25.147Z,97034.36
2024-03-27T01:27:27.227Z,97027.98
2024-03-27T01:32:28.985Z,97026.75
2024-03-27T01:37:30.820Z,97027.54
2024-03-27T01:42:35.918Z,97020.52
2024-03-27T01:47:37.846Z,97014.25
2024-03-27T01:52:41.415Z,97003.41
2024-03-27T01:57:44.632Z,96994.94
2024-03-27T02:02:47.635Z,96988.05
2024-03-27T02:07:49.410Z,96983.39
2024-03-27T02:12:51.289Z,96984.98
2024-03-27T02:17:52.915Z,96980.59
2024-03-27T02:22:59.900Z,96975.89
2024-03-27T02:28:01.702Z,96965.63
2024-03-27T02:33:03.565Z,96958.42
2024-03-27T02:38:05.224Z,96953.38
2024-03-27T02:43:07.098Z,96958.15
2024-03-27T02:48:08.850Z,96962.27
2024-03-27T02:53:10.625Z,96957.72
2024-03-27T02:58:12.410Z,96948.42
2024-03-27T03:03:14.183Z,96947.54
2024-03-27T03:08:15.823Z,96946.47
2024-03-27T03:13:17.530Z,96942.54
2024-03-27T03:18:19.409Z,96944.20
2024-03-27T03:23:21.187Z,96938.20
2024-03-27T03:28:23.477Z,96938.63
2024-03-27T03:33:25.184Z,96937.06
2024-03-27T03:38:29.595Z,96928.05
2024-03-27T03:43:31.397Z,96931.29
2024-03-27T03:48:33.664Z,96932.69
2024-03-27T03:53:35.422Z,96930.39
2024-03-27T03:58:37.104Z,96926.20
2024-03-27T04:03:38.769Z,96927.77
2024-03-27T04:08:40.499Z,96925.36
2024-03-27T04:13:42.264Z,96919.73
2024-03-27T04:18:44.259Z,96920.24
2024-03-27T04:23:46.613Z,96920.73
2024-03-27T04:28:48.260Z,96921.52
2024-03-27T04:33:51.090Z,96917.37
2024-03-27T04:38:53.616Z,96914.79
2024-03-27T04:43:55.460Z,96912.09
2024-03-27T04:48:57.087Z,96902.65
2024-03-27T04:53:58.766Z,96904.59
2024-03-27T04:59:00.570Z,96899.91
2024-03-27T05:04:03.389Z,96900.98
2024-03-27T05:09:05.062Z,96897.61
2024-03-27T05:14:06.942Z,96902.16
2024-03-27T05:19:08.741Z,96898.38
2024-03-27T05:24:11.351Z,96904.04
2024-03-27T05:29:13.914Z,96896.61
2024-03-27T05:34:17.071Z,96885.13
2024-03-27T05:39:20.188Z,96879.04
2024-03-27T05:44:22.020Z,96880.11
2024-03-27T05:49:25.563Z,96883.02
2024-03-27T05:54:27.305Z,96874.98
2024-03-27T05:59:29.113Z,96873.01
2024-03-27T06:04:31.689Z,96875.27
2024-03-27T06:09:33.662Z,96873.92
2024-03-27T06:14:35.450Z,96872.55
2024-03-27T06:19:37.124Z,96868.91
2024-03-27T06:24:38.918Z,96864.70
2024-03-27T06:29:40.873Z,96860.06
2024-03-27T06:34:42.467Z,96858.67
2024-03-27T06:39:44.138Z,96862.64
2024-03-27T06:49:48.420Z,96866.12
2024-03-27T06:54:51.909Z,96858.13
2024-03-27T06:59:53.587Z,96847.37
2024-03-27T07:04:56.841Z,96837.98
2024-03-27T07:09:59.813Z,96830.65
2024-03-27T07:15:01.650Z,96823.91
2024-03-27T07:20:05.871Z,96821.05
2024-03-27T07:25:08.374Z,96817.73
2024-03-27T07:30:12.972Z,96807.95
2024-03-27T07:35:15.014Z,96811.64
2024-03-27T07:40:16.779Z,96818.05
2024-03-27T07:45:18.926Z,96815.56
2024-03-27T07:50:20.582Z,96819.75
2024-03-27T07:55:22.965Z,96820.08
2024-03-27T08:00:24.741Z,96815.87
2024-03-27T08:05:26.624Z,96823.86
2024-03-27T08:10:30.893Z,96819.96
2024-03-27T08:15:32.681Z,96822.71
2024-03-27T08:20:34.615Z,96823.46
2024-03-27T08:25:36.623Z,96824.83
2024-03-27T08:30:38.375Z,96823.13
2024-03-27T08:35:40.768Z,96818.30
2024-03-27T08:40:42.763Z,96808.73
2024-03-27T08:45:45.276Z,96802.67
2024-03-27T08:50:47.631Z,96805.65
2024-03-27T08:55:49.516Z,96813.39
2024-03-27T09:00:51.601Z,96811.42
2024-03-27T09:05:56.075Z,96818.93
2024-03-27T09:10:59.380Z,96810.14
2024-03-27T09:16:01.141Z,96800.73
2024-03-27T09:21:03.017Z,96797.91
2024-03-27T09:26:06.143Z,96802.92
2024-03-27T09:31:09.031Z,96802.08
2024-03-27T09:36:15.450Z,96803.87
2024-03-27T09:41:17.175Z,96807.48
2024-03-27T09:46:18.962Z,96812.26
2024-03-27T09:51:21.763Z,96807.77
2024-03-27T09:56:23.436Z,96819.56
2024-03-27T10:01:34.772Z,96817.67
2024-03-27T10:06:43.438Z,96815.40
2024-03-27T10:11:45.165Z,96815.94
2024-03-27T10:16:46.944Z,96815.34
2024-03-27T10:21:48.882Z,96818.55
2024-03-27T10:26:52.699Z,96813.07
2024-03-27T10:31:55.166Z,96812.38
2024-03-27T10:36:57.713Z,96808.49
2024-03-27T10:41:59.641Z,96810.59
2024-03-27T10:47:06.264Z,96808.73
2024-03-27T10:52:10.757Z,96814.67
2024-03-27T10:57:14.418Z,96787.80
2024-03-27T11:02:19.349Z,96806.45
2024-03-27T11:07:21.695Z,96804.00
2024-03-27T11:12:24.471Z,96796.05
2024-03-27T11:17:30.081Z,96799.88
2024-03-27T11:22:32.073Z,96797.30
2024-03-27T11:27:33.777Z,96777.90
2024-03-27T11:32:40.218Z,96771.52
2024-03-27T11:37:42.302Z,96770.63
2024-03-27T11:42:44.177Z,96772.59
2024-03-27T11:47:47.094Z,96770.27
2024-03-27T11:52:49.175Z,96767.83
2024-03-27T11:57:50.807Z,96763.65
2024-03-27T12:02:53.079Z,96762.50
2024-03-27T12:07:55.010Z,96763.23
2024-03-27T12:12:56.877Z,96757.89
2024-03-27T12:18:01.905Z,96744.67
2024-03-27T12:23:04.106Z,96741.91
2024-03-27T12:28:08.735Z,96745.48
2024-03-27T12:33:10.756Z,96742.23
2024-03-27T12:38:13.251Z,96740.84
2024-03-27T12:43:14.956Z,96739.83
2024-03-27T12:48:21.694Z,96735.10
2024-03-27T12:53:24.031Z,96739.52
2024-03-27T12:58:25.704Z,96735.52
2024-03-27T13:03:27.493Z,96722.95
2024-03-27T13:08:29.313Z,96706.49
2024-03-27T13:13:32.272Z,96696.50
2024-03-27T13:18:33.819Z,96694.69
2024-03-27T13:23:37.842Z,96693.36
2024-03-27T13:28:40.077Z,96679.96
2024-03-27T13:33:41.782Z,96674.11
2024-03-27T13:38:43.593Z,96674.18
2024-03-27T13:43:45.365Z,96672.84
2024-03-27T13:48:50.164Z,96665.75
2024-03-27T13:53:52.094Z,96663.33
2024-03-27T13:58:53.872Z,96661.14
2024-03-27T14:03:55.557Z,96659.33
2024-03-27T14:08:57.215Z,96646.23
2024-03-27T14:14:01.878Z,96639.44
2024-03-27T14:19:04.762Z,96635.33
2024-03-27T14:24:08.702Z,96636.67
2024-03-27T14:29:10.410Z,96630.64
2024-03-27T14:34:12.253Z,96628.77
2024-03-27T14:39:16.533Z,96622.07
2024-03-27T14:44:20.928Z,96611.26
2024-03-27T14:49:25.912Z,96612.45
2024-03-27T14:54:27.556Z,96618.92
2024-03-27T14:59:29.331Z,96618.65
2024-03-27T15:04:31.111Z,96613.39
2024-03-27T15:09:40.985Z,96607.77
2024-03-27T15:14:47.464Z,96599.88
2024-03-27T15:19:50.395Z,96609.20
2024-03-27T15:24:52.151Z,96607.16
2024-03-27T15:29:53.879Z,96603.91
2024-03-27T15:34:56.316Z,96602.14
2024-03-27T15:39:58.123Z,96603.70
2024-03-27T15:45:00.815Z,96608.75
2024-03-27T15:50:03.227Z,96609.69
2024-03-27T15:55:05.785Z,96616.30
2024-03-27T16:00:10.748Z,96619.94
2024-03-27T16:05:15.294Z,96617.77
2024-03-27T16:10:17.386Z,96613.71
2024-03-27T16:15:19.172Z,96616.91
2024-03-27T16:20:20.891Z,96614.27
2024-03-27T16:25:22.584Z,96607.48
2024-03-27T16:30:24.869Z,96600.23
2024-03-27T16:35:26.550Z,96606.42
2024-03-27T16:40:28.333Z,96613.80
2024-03-27T16:45:30.118Z,96609.55
2024-03-27T16:50:31.986Z,96603.40
2024-03-27T16:55:33.691Z,96590.52
2024-03-27T17:00:44.554Z,96589.80
2024-03-27T17:05:53.022Z,96599.86
2024-03-27T17:10:54.672Z,96613.68
2024-03-27T17:15:56.575Z,96622.45
2024-03-27T17:20:58.347Z,96623.30
2024-03-27T17:26:00.117Z,96616.97
2024-03-27T17:31:02.135Z,96622.20
2024-03-27T17:36:04.582Z,96624.32
2024-03-27T17:41:06.450Z,96626.30
2024-03-27T17:46:08.532Z,96626.85
2024-03-27T17:51:10.355Z,96628.36
2024-03-27T17:56:12.616Z,96633.90
2024-03-27T18:01:15.913Z,96641.02
2024-03-27T18:06:17.693Z,96637.58
2024-03-27T18:11:19.467Z,96631.94
2024-03-27T18:16:24.784Z,96631.05
2024-03-27T18:21:26.605Z,96632.83
2024-03-27T18:26:28.792Z,96628.38
2024-03-27T18:31:30.497Z,96630.91
2024-03-27T18:36:33.687Z,96638.18
2024-03-27T18:41:35.372Z,96622.77
2024-03-27T18:46:38.676Z,96632.83
2024-03-27T18:51:40.444Z,96629.98
2024-03-27T18:56:42.472Z,96625.67
2024-03-27T19:01:44.206Z,96623.58
2024-03-27T19:06:55.402Z,96620.89
2024-03-27T19:11:57.391Z,96619.84
2024-03-27T19:16:59.171Z,96615.12
2024-03-27T19:22:02.390Z,96615.77
2024-03-27T19:27:06.881Z,96621.42
2024-03-27T19:32:08.795Z,96614.41
2024-03-27T19:37:10.426Z,96614.34
2024-03-27T19:42:12.764Z,96604.07
2024-03-27T19:47:14.460Z,96588.20
2024-03-27T19:52:26.216Z,96587.92
2024-03-27T19:57:31.203Z,96601.80
2024-03-27T20:02:33.284Z,96601.75
2024-03-27T20:07:35.434Z,96598.04
2024-03-27T20:12:37.553Z,96589.91
2024-03-27T20:17:39.227Z,96582.14
2024-03-27T20:22:40.859Z,96576.30
2024-03-27T20:27:52.715Z,96568.92
2024-03-27T20:32:54.621Z,96567.38
2024-03-27T20:37:56.679Z,96564.09
2024-03-27T20:43:00.913Z,96551.09
2024-03-27T20:48:03.009Z,96545.48
2024-03-27T20:53:05.394Z,96542.29
2024-03-27T20:58:08.877Z,96538.55
2024-03-27T21:03:10.683Z,96545.65
2024-03-27T21:08:12.359Z,96539.59
2024-03-27T21:13:14.073Z,96535.14
2024-03-27T21:18:15.920Z,96536.30
2024-03-27T21:23:17.626Z,96525.98
2024-03-27T21:28:19.436Z,96516.41
2024-03-27T21:33:21.091Z,96508.64
2024-03-27T21:38:22.916Z,96500.85
2024-03-27T21:43:25.522Z,96496.96
2024-03-27T21:48:27.396Z,96488.26
2024-03-27T21:53:30.129Z,96492.34
2024-03-27T21:58:31.832Z,96486.22
2024-03-27T22:03:33.561Z,96477.95
2024-03-27T22:08:39.800Z,96467.38
2024-03-27T22:13:41.469Z,96461.59
2024-03-27T22:18:43.216Z,96456.52
2024-03-27T22:23:44.884Z,96447.73
2024-03-27T22:28:46.632Z,96448.81
2024-03-27T22:33:48.310Z,96444.08
2024-03-27T22:38:50.086Z,96434.66
2024-03-27T22:43:56.172Z,96430.61
2024-03-27T22:49:01.676Z,96416.88
2024-03-27T22:54:04.251Z,96403.28
2024-03-27T22:59:06.006Z,96394.70
2024-03-27T23:04:07.881Z,96393.39
2024-03-27T23:09:09.762Z,96386.60
2024-03-27T23:14:11.540Z,96388.81
2024-03-27T23:19:13.328Z,96379.93
2024-03-27T23:24:15.195Z,96366.08
2024-03-27T23:29:16.996Z,96363.10
2024-03-27T23:34:18.762Z,96362.45
2024-03-27T23:39:21.372Z,96355.20
2024-03-27T23:44:23.344Z,96354.73
2024-03-27T23:49:25.211Z,96361.33
2024-03-27T23:54:26.984Z,96359.20
2024-03-27T23:59:28.772Z,96349.82
